»·PEaware :: N368P F70-KCPM

N368P :: F70-KCPM

FLIGHT INFORMATION

Flight Status: Arrived
Operator: Privately registered:
United States
More flights under this callsign
Pilot: Bill H. (23183)
Aircraft: CESSNA 172 SKYHAWK
(C172)
More flights by this aircraft type
Origin: F70 French Valley
United States
Destination: KCPM Compton/Woodley
United States
More flights between these airports :: More routes between these airports
Route: F70 KSNA KCPM
File this flight plan on PilotEdge
Remarks: Training Flight | Cessna 172
Altitude:
(Current/Filed)
4,500ft
Speed:
(Current/Filed)
120kts
Departed: 14-Apr-19 03:36 PM
Arrived: 14-Apr-19 04:14 PM
Distance/Time
Traveled:
59nm/0:37
Distance/Time
To Go:
Arrived

Flight Plot

Page will automatically refresh every two minutes.

Flight plan parsing failed; only flown route is shown


Map Options




Map Legend


Flown Route
Filed Route
Departure Airport
Arrival Airport
Navaid (VOR, NDB)
Fix

Horizontal Profiles

Position Reports

Time Latitude Longitude Heading Altitude Ground
Speed
14-Apr-19 15:28 33.574492 -117.129159 36 1354ft 0kts
14-Apr-19 15:30 33.574492 -117.129159 36 1354ft 0kts
14-Apr-19 15:30 33.574492 -117.129159 36 1354ft 0kts
14-Apr-19 15:31 33.574492 -117.129159 36 1354ft 0kts
14-Apr-19 15:32 33.574492 -117.129159 36 1354ft 0kts
14-Apr-19 15:33 33.574492 -117.129159 36 1354ft 0kts
14-Apr-19 15:34 33.574619 -117.128964 57 1354ft 1kts
14-Apr-19 15:35 33.567957 -117.130207 204 1474ft 67kts
14-Apr-19 15:36 33.554704 -117.142700 298 2094ft 71kts
14-Apr-19 15:37 33.569698 -117.158508 316 2790ft 71kts
14-Apr-19 15:38 33.580848 -117.176530 291 3482ft 66kts
14-Apr-19 15:39 33.586127 -117.199182 283 4023ft 75kts
14-Apr-19 15:40 33.590061 -117.224158 281 4520ft 76kts
14-Apr-19 15:41 33.593899 -117.250737 280 4507ft 97kts
14-Apr-19 15:42 33.598407 -117.282852 281 4506ft 97kts
14-Apr-19 15:43 33.602895 -117.315057 281 4506ft 97kts
14-Apr-19 15:44 33.607385 -117.347367 281 4507ft 97kts
14-Apr-19 15:45 33.611859 -117.379598 280 4505ft 98kts
14-Apr-19 15:46 33.616946 -117.416459 279 4509ft 120kts
14-Apr-19 15:47 33.622497 -117.456689 278 4509ft 122kts
14-Apr-19 15:48 33.627760 -117.494744 277 4510ft 112kts
14-Apr-19 15:49 33.632836 -117.531721 277 4511ft 112kts
14-Apr-19 15:50 33.637925 -117.568875 276 4512ft 113kts
14-Apr-19 15:52 33.643999 -117.613383 276 4513ft 118kts
14-Apr-19 15:52 33.648461 -117.646090 276 4513ft 118kts
14-Apr-19 15:53 33.653817 -117.685375 276 4515ft 119kts
14-Apr-19 15:54 33.660317 -117.724678 276 4516ft 119kts
14-Apr-19 15:55 33.664779 -117.764289 274 4516ft 119kts
14-Apr-19 15:56 33.669875 -117.803897 275 4516ft 118kts
14-Apr-19 15:57 33.675149 -117.843160 275 4517ft 118kts
14-Apr-19 15:58 33.686434 -117.880405 298 4516ft 122kts
14-Apr-19 15:59 33.705749 -117.914651 299 4514ft 123kts
14-Apr-19 16:00 33.725340 -117.948874 299 4513ft 124kts
14-Apr-19 16:01 33.745038 -117.983296 299 4512ft 124kts
14-Apr-19 16:02 33.765041 -118.018249 299 4068ft 127kts
14-Apr-19 16:03 33.785019 -118.053200 301 3247ft 128kts
14-Apr-19 16:04 33.804358 -118.087043 301 2779ft 104kts
14-Apr-19 16:05 33.821631 -118.117432 302 2803ft 111kts
14-Apr-19 16:06 33.822763 -118.150509 244 2805ft 109kts
14-Apr-19 16:07 33.814746 -118.184698 263 2807ft 107kts
14-Apr-19 16:08 33.811858 -118.220461 264 2809ft 106kts
14-Apr-19 16:09 33.815359 -118.253917 327 2664ft 116kts
14-Apr-19 16:10 33.848016 -118.246277 24 1894ft 129kts
14-Apr-19 16:11 33.875299 -118.228323 26 1305ft 94kts
14-Apr-19 16:12 33.889850 -118.235122 267 267ft 102kts
14-Apr-19 16:13 33.889638 -118.249358 264 101ft 13kts
14-Apr-19 16:14 33.889317 -118.248626 89 101ft 0kts
14-Apr-19 16:15 33.889404 -118.248079 81 101ft 7kts
14-Apr-19 16:16 33.889000 -118.246047 178 101ft 0kts
14-Apr-19 16:17 33.889000 -118.246047 178 101ft 0kts
14-Apr-19 16:18 33.889000 -118.246047 178 101ft 0kts
14-Apr-19 16:19 33.889000 -118.246047 178 101ft 0kts
14-Apr-19 16:20 33.889000 -118.246047 178 101ft 0kts
14-Apr-19 16:21 33.889000 -118.246047 178 101ft 0kts
14-Apr-19 16:22 33.889000 -118.246047 178 101ft 0kts

Navigation Log

Ident Type
Flight plan parsing failed, navigation log unavailable